sensor_id;sensor_type;location;lat;lon;timestamp;P1;durP1;ratioP1;P2;durP2;ratioP2
73337;SDS011;61575;49.908;35.556;2023-07-29T00:00:12;3.58;;;2.00;;
73337;SDS011;61575;49.908;35.556;2023-07-29T00:03:15;3.88;;;1.77;;
73337;SDS011;61575;49.908;35.556;2023-07-29T00:06:17;5.95;;;2.10;;
73337;SDS011;61575;49.908;35.556;2023-07-29T00:09:19;4.35;;;1.90;;
73337;SDS011;61575;49.908;35.556;2023-07-29T00:12:21;4.28;;;1.75;;
73337;SDS011;61575;49.908;35.556;2023-07-29T00:15:23;2.95;;;1.88;;
73337;SDS011;61575;49.908;35.556;2023-07-29T00:18:25;3.63;;;2.05;;
73337;SDS011;61575;49.908;35.556;2023-07-29T00:21:27;3.83;;;2.22;;
73337;SDS011;61575;49.908;35.556;2023-07-29T00:24:29;3.15;;;1.70;;
73337;SDS011;61575;49.908;35.556;2023-07-29T00:27:31;3.47;;;1.92;;
73337;SDS011;61575;49.908;35.556;2023-07-29T00:30:33;3.95;;;2.00;;
73337;SDS011;61575;49.908;35.556;2023-07-29T00:33:35;3.70;;;1.90;;
73337;SDS011;61575;49.908;35.556;2023-07-29T00:39:40;3.45;;;1.80;;
73337;SDS011;61575;49.908;35.556;2023-07-29T00:42:43;3.30;;;1.80;;
73337;SDS011;61575;49.908;35.556;2023-07-29T00:45:45;4.95;;;1.90;;
73337;SDS011;61575;49.908;35.556;2023-07-29T00:48:48;3.60;;;2.00;;
73337;SDS011;61575;49.908;35.556;2023-07-29T00:51:50;3.35;;;1.90;;
73337;SDS011;61575;49.908;35.556;2023-07-29T00:54:52;3.50;;;1.77;;
73337;SDS011;61575;49.908;35.556;2023-07-29T00:57:54;4.60;;;2.08;;
73337;SDS011;61575;49.908;35.556;2023-07-29T01:00:56;4.60;;;1.83;;
73337;SDS011;61575;49.908;35.556;2023-07-29T01:03:58;4.03;;;1.98;;
73337;SDS011;61575;49.908;35.556;2023-07-29T01:07:11;3.65;;;1.92;;
73337;SDS011;61575;49.908;35.556;2023-07-29T01:13:27;4.00;;;1.77;;
73337;SDS011;61575;49.908;35.556;2023-07-29T01:16:42;3.72;;;2.00;;
73337;SDS011;61575;49.908;35.556;2023-07-29T01:20:02;3.40;;;2.08;;
73337;SDS011;61575;49.908;35.556;2023-07-29T01:23:15;3.22;;;1.80;;
73337;SDS011;61575;49.908;35.556;2023-07-29T01:29:20;4.00;;;1.80;;
73337;SDS011;61575;49.908;35.556;2023-07-29T01:32:26;3.92;;;1.90;;
73337;SDS011;61575;49.908;35.556;2023-07-29T01:38:46;3.60;;;2.00;;
73337;SDS011;61575;49.908;35.556;2023-07-29T01:41:49;4.35;;;1.85;;
73337;SDS011;61575;49.908;35.556;2023-07-29T01:47:54;3.53;;;1.80;;
73337;SDS011;61575;49.908;35.556;2023-07-29T01:50:56;3.40;;;1.95;;
73337;SDS011;61575;49.908;35.556;2023-07-29T01:53:58;4.78;;;1.88;;
73337;SDS011;61575;49.908;35.556;2023-07-29T01:57:01;3.78;;;1.80;;
73337;SDS011;61575;49.908;35.556;2023-07-29T02:00:03;3.55;;;1.83;;
73337;SDS011;61575;49.908;35.556;2023-07-29T02:03:14;4.13;;;1.90;;
73337;SDS011;61575;49.908;35.556;2023-07-29T02:06:16;4.18;;;2.22;;
73337;SDS011;61575;49.908;35.556;2023-07-29T02:09:19;3.90;;;2.13;;
73337;SDS011;61575;49.908;35.556;2023-07-29T02:12:21;4.13;;;2.10;;
73337;SDS011;61575;49.908;35.556;2023-07-29T02:15:23;3.55;;;2.17;;
73337;SDS011;61575;49.908;35.556;2023-07-29T02:18:25;3.25;;;1.80;;
73337;SDS011;61575;49.908;35.556;2023-07-29T02:21:27;3.47;;;1.92;;
73337;SDS011;61575;49.908;35.556;2023-07-29T02:24:29;3.78;;;2.00;;
73337;SDS011;61575;49.908;35.556;2023-07-29T02:27:31;4.53;;;2.30;;
73337;SDS011;61575;49.908;35.556;2023-07-29T02:30:33;4.35;;;2.20;;
73337;SDS011;61575;49.908;35.556;2023-07-29T02:33:35;5.63;;;2.10;;
73337;SDS011;61575;49.908;35.556;2023-07-29T02:36:37;6.63;;;2.40;;
73337;SDS011;61575;49.908;35.556;2023-07-29T02:42:43;3.20;;;1.90;;
73337;SDS011;61575;49.908;35.556;2023-07-29T02:45:45;4.65;;;2.30;;
73337;SDS011;61575;49.908;35.556;2023-07-29T02:48:47;3.83;;;2.20;;
73337;SDS011;61575;49.908;35.556;2023-07-29T02:51:49;6.03;;;2.05;;
73337;SDS011;61575;49.908;35.556;2023-07-29T02:54:51;5.20;;;2.15;;
73337;SDS011;61575;49.908;35.556;2023-07-29T02:57:53;3.38;;;2.00;;
73337;SDS011;61575;49.908;35.556;2023-07-29T03:01:04;3.95;;;2.13;;
73337;SDS011;61575;49.908;35.556;2023-07-29T03:04:07;5.40;;;2.30;;
73337;SDS011;61575;49.908;35.556;2023-07-29T03:07:09;5.10;;;2.35;;
73337;SDS011;61575;49.908;35.556;2023-07-29T03:10:11;3.97;;;2.10;;
73337;SDS011;61575;49.908;35.556;2023-07-29T03:13:15;4.20;;;2.40;;
73337;SDS011;61575;49.908;35.556;2023-07-29T03:16:17;4.72;;;2.22;;
73337;SDS011;61575;49.908;35.556;2023-07-29T03:19:29;4.90;;;2.42;;
73337;SDS011;61575;49.908;35.556;2023-07-29T03:22:31;4.68;;;2.47;;
73337;SDS011;61575;49.908;35.556;2023-07-29T03:25:33;4.03;;;2.30;;
73337;SDS011;61575;49.908;35.556;2023-07-29T03:28:35;4.22;;;2.45;;
73337;SDS011;61575;49.908;35.556;2023-07-29T03:31:38;5.55;;;2.80;;
73337;SDS011;61575;49.908;35.556;2023-07-29T03:34:41;4.15;;;2.53;;
73337;SDS011;61575;49.908;35.556;2023-07-29T03:37:43;4.40;;;2.40;;
73337;SDS011;61575;49.908;35.556;2023-07-29T03:40:45;4.55;;;2.53;;
73337;SDS011;61575;49.908;35.556;2023-07-29T03:43:48;4.45;;;2.50;;
73337;SDS011;61575;49.908;35.556;2023-07-29T03:46:50;5.38;;;2.78;;
73337;SDS011;61575;49.908;35.556;2023-07-29T03:49:52;5.75;;;2.70;;
73337;SDS011;61575;49.908;35.556;2023-07-29T03:52:56;4.10;;;2.55;;
73337;SDS011;61575;49.908;35.556;2023-07-29T03:55:58;4.85;;;2.72;;
73337;SDS011;61575;49.908;35.556;2023-07-29T03:59:03;4.63;;;2.60;;
73337;SDS011;61575;49.908;35.556;2023-07-29T04:02:07;5.82;;;3.00;;
73337;SDS011;61575;49.908;35.556;2023-07-29T04:05:09;5.90;;;3.30;;
73337;SDS011;61575;49.908;35.556;2023-07-29T04:08:11;5.47;;;2.70;;
73337;SDS011;61575;49.908;35.556;2023-07-29T04:11:14;6.03;;;2.58;;
73337;SDS011;61575;49.908;35.556;2023-07-29T04:14:16;6.20;;;2.92;;
73337;SDS011;61575;49.908;35.556;2023-07-29T04:17:18;4.68;;;2.30;;
73337;SDS011;61575;49.908;35.556;2023-07-29T04:20:20;5.25;;;2.78;;
73337;SDS011;61575;49.908;35.556;2023-07-29T04:23:22;4.28;;;2.60;;
73337;SDS011;61575;49.908;35.556;2023-07-29T04:26:24;4.40;;;2.67;;
73337;SDS011;61575;49.908;35.556;2023-07-29T04:29:26;5.85;;;2.97;;
73337;SDS011;61575;49.908;35.556;2023-07-29T04:32:28;4.95;;;2.67;;
73337;SDS011;61575;49.908;35.556;2023-07-29T04:35:30;4.30;;;2.72;;
73337;SDS011;61575;49.908;35.556;2023-07-29T04:38:32;4.70;;;2.58;;
73337;SDS011;61575;49.908;35.556;2023-07-29T04:41:35;6.03;;;2.72;;
73337;SDS011;61575;49.908;35.556;2023-07-29T04:44:37;3.67;;;2.20;;
73337;SDS011;61575;49.908;35.556;2023-07-29T04:47:39;4.40;;;2.58;;
73337;SDS011;61575;49.908;35.556;2023-07-29T04:50:41;4.70;;;2.30;;
73337;SDS011;61575;49.908;35.556;2023-07-29T04:53:42;4.30;;;2.53;;
73337;SDS011;61575;49.908;35.556;2023-07-29T04:56:44;4.45;;;2.60;;
73337;SDS011;61575;49.908;35.556;2023-07-29T04:59:46;5.43;;;2.33;;
73337;SDS011;61575;49.908;35.556;2023-07-29T05:02:49;4.22;;;2.38;;
73337;SDS011;61575;49.908;35.556;2023-07-29T05:05:50;4.32;;;2.70;;
73337;SDS011;61575;49.908;35.556;2023-07-29T05:08:56;3.95;;;2.38;;
73337;SDS011;61575;49.908;35.556;2023-07-29T05:11:59;5.88;;;2.58;;
73337;SDS011;61575;49.908;35.556;2023-07-29T05:15:01;3.55;;;2.20;;
73337;SDS011;61575;49.908;35.556;2023-07-29T05:18:04;4.07;;;2.33;;
73337;SDS011;61575;49.908;35.556;2023-07-29T05:21:06;4.28;;;2.33;;
73337;SDS011;61575;49.908;35.556;2023-07-29T05:24:10;4.30;;;2.10;;
73337;SDS011;61575;49.908;35.556;2023-07-29T05:27:12;3.85;;;2.20;;
73337;SDS011;61575;49.908;35.556;2023-07-29T05:30:13;4.72;;;2.17;;
73337;SDS011;61575;49.908;35.556;2023-07-29T05:33:16;4.60;;;2.45;;
73337;SDS011;61575;49.908;35.556;2023-07-29T05:36:19;4.13;;;2.00;;
73337;SDS011;61575;49.908;35.556;2023-07-29T05:39:20;5.13;;;2.47;;
73337;SDS011;61575;49.908;35.556;2023-07-29T05:42:22;4.50;;;2.20;;
73337;SDS011;61575;49.908;35.556;2023-07-29T05:45:24;4.43;;;2.30;;
73337;SDS011;61575;49.908;35.556;2023-07-29T05:48:27;4.55;;;2.40;;
73337;SDS011;61575;49.908;35.556;2023-07-29T05:51:29;4.53;;;2.15;;
73337;SDS011;61575;49.908;35.556;2023-07-29T05:54:31;4.35;;;2.15;;
73337;SDS011;61575;49.908;35.556;2023-07-29T05:57:33;3.03;;;1.60;;
73337;SDS011;61575;49.908;35.556;2023-07-29T06:00:35;4.35;;;2.05;;
73337;SDS011;61575;49.908;35.556;2023-07-29T06:03:37;5.63;;;2.15;;
73337;SDS011;61575;49.908;35.556;2023-07-29T06:06:40;3.85;;;2.00;;
73337;SDS011;61575;49.908;35.556;2023-07-29T06:09:42;3.75;;;1.92;;
73337;SDS011;61575;49.908;35.556;2023-07-29T06:12:44;3.67;;;1.67;;
73337;SDS011;61575;49.908;35.556;2023-07-29T06:15:47;3.22;;;1.52;;
73337;SDS011;61575;49.908;35.556;2023-07-29T06:18:49;4.95;;;2.08;;
73337;SDS011;61575;49.908;35.556;2023-07-29T06:21:50;3.85;;;2.05;;
73337;SDS011;61575;49.908;35.556;2023-07-29T06:24:53;4.13;;;1.60;;
73337;SDS011;61575;49.908;35.556;2023-07-29T06:27:55;3.58;;;1.60;;
73337;SDS011;61575;49.908;35.556;2023-07-29T06:30:57;3.47;;;1.60;;
73337;SDS011;61575;49.908;35.556;2023-07-29T06:33:59;3.92;;;1.80;;
73337;SDS011;61575;49.908;35.556;2023-07-29T06:37:01;3.20;;;1.48;;
73337;SDS011;61575;49.908;35.556;2023-07-29T06:40:03;3.33;;;1.50;;
73337;SDS011;61575;49.908;35.556;2023-07-29T06:43:06;2.53;;;1.23;;
73337;SDS011;61575;49.908;35.556;2023-07-29T06:46:08;3.25;;;1.30;;
73337;SDS011;61575;49.908;35.556;2023-07-29T06:52:12;4.87;;;1.50;;
73337;SDS011;61575;49.908;35.556;2023-07-29T06:55:14;3.13;;;1.40;;
73337;SDS011;61575;49.908;35.556;2023-07-29T06:58:16;2.78;;;1.40;;
73337;SDS011;61575;49.908;35.556;2023-07-29T07:01:18;3.22;;;1.20;;
73337;SDS011;61575;49.908;35.556;2023-07-29T07:07:22;2.80;;;1.40;;
73337;SDS011;61575;49.908;35.556;2023-07-29T07:10:24;3.10;;;1.30;;
73337;SDS011;61575;49.908;35.556;2023-07-29T07:13:26;2.42;;;1.13;;
73337;SDS011;61575;49.908;35.556;2023-07-29T07:16:27;3.15;;;1.50;;
73337;SDS011;61575;49.908;35.556;2023-07-29T07:19:32;2.13;;;1.17;;
73337;SDS011;61575;49.908;35.556;2023-07-29T07:22:33;3.58;;;1.30;;
73337;SDS011;61575;49.908;35.556;2023-07-29T07:25:35;1.95;;;1.10;;
73337;SDS011;61575;49.908;35.556;2023-07-29T07:31:39;3.90;;;1.15;;
73337;SDS011;61575;49.908;35.556;2023-07-29T07:37:43;3.67;;;1.40;;
73337;SDS011;61575;49.908;35.556;2023-07-29T07:40:54;2.45;;;1.25;;
73337;SDS011;61575;49.908;35.556;2023-07-29T07:43:57;2.08;;;1.13;;
73337;SDS011;61575;49.908;35.556;2023-07-29T07:46:59;2.30;;;1.20;;
73337;SDS011;61575;49.908;35.556;2023-07-29T07:50:05;2.67;;;1.20;;
73337;SDS011;61575;49.908;35.556;2023-07-29T07:53:07;3.42;;;1.30;;
73337;SDS011;61575;49.908;35.556;2023-07-29T07:56:09;2.45;;;1.20;;
73337;SDS011;61575;49.908;35.556;2023-07-29T08:02:16;3.67;;;1.17;;
73337;SDS011;61575;49.908;35.556;2023-07-29T08:05:18;5.43;;;1.83;;
73337;SDS011;61575;49.908;35.556;2023-07-29T08:08:20;4.47;;;3.13;;
73337;SDS011;61575;49.908;35.556;2023-07-29T08:14:25;2.28;;;1.15;;
73337;SDS011;61575;49.908;35.556;2023-07-29T08:17:27;3.88;;;1.30;;
73337;SDS011;61575;49.908;35.556;2023-07-29T08:23:32;8.27;;;2.90;;
73337;SDS011;61575;49.908;35.556;2023-07-29T08:26:35;3.70;;;1.20;;
73337;SDS011;61575;49.908;35.556;2023-07-29T08:29:38;2.38;;;1.13;;
73337;SDS011;61575;49.908;35.556;2023-07-29T08:32:40;1.85;;;1.10;;
73337;SDS011;61575;49.908;35.556;2023-07-29T08:38:44;2.35;;;1.17;;
73337;SDS011;61575;49.908;35.556;2023-07-29T08:44:55;3.08;;;1.15;;
73337;SDS011;61575;49.908;35.556;2023-07-29T08:47:58;2.33;;;1.10;;
73337;SDS011;61575;49.908;35.556;2023-07-29T08:51:01;2.90;;;1.30;;
73337;SDS011;61575;49.908;35.556;2023-07-29T08:54:06;2.40;;;1.10;;
73337;SDS011;61575;49.908;35.556;2023-07-29T08:57:09;1.92;;;1.00;;
73337;SDS011;61575;49.908;35.556;2023-07-29T09:00:11;1.83;;;0.98;;
73337;SDS011;61575;49.908;35.556;2023-07-29T09:03:15;2.90;;;1.17;;
73337;SDS011;61575;49.908;35.556;2023-07-29T09:06:17;3.95;;;1.48;;
73337;SDS011;61575;49.908;35.556;2023-07-29T09:09:21;2.30;;;1.10;;
73337;SDS011;61575;49.908;35.556;2023-07-29T09:12:23;4.22;;;1.40;;
73337;SDS011;61575;49.908;35.556;2023-07-29T09:15:26;2.70;;;1.00;;
73337;SDS011;61575;49.908;35.556;2023-07-29T09:18:30;2.83;;;1.00;;
73337;SDS011;61575;49.908;35.556;2023-07-29T09:21:32;2.10;;;1.10;;
73337;SDS011;61575;49.908;35.556;2023-07-29T09:24:34;1.70;;;0.90;;
73337;SDS011;61575;49.908;35.556;2023-07-29T09:27:36;3.15;;;1.15;;
73337;SDS011;61575;49.908;35.556;2023-07-29T09:30:42;2.58;;;1.10;;
73337;SDS011;61575;49.908;35.556;2023-07-29T09:33:48;3.33;;;1.80;;
73337;SDS011;61575;49.908;35.556;2023-07-29T09:36:50;2.40;;;1.20;;
73337;SDS011;61575;49.908;35.556;2023-07-29T09:39:53;3.83;;;1.50;;
73337;SDS011;61575;49.908;35.556;2023-07-29T09:49:07;2.83;;;1.27;;
73337;SDS011;61575;49.908;35.556;2023-07-29T09:52:09;3.08;;;1.50;;
73337;SDS011;61575;49.908;35.556;2023-07-29T09:58:14;4.60;;;1.77;;
73337;SDS011;61575;49.908;35.556;2023-07-29T10:01:29;4.43;;;2.08;;
73337;SDS011;61575;49.908;35.556;2023-07-29T10:04:31;3.30;;;1.60;;
73337;SDS011;61575;49.908;35.556;2023-07-29T10:07:37;4.10;;;1.80;;
73337;SDS011;61575;49.908;35.556;2023-07-29T10:10:43;3.17;;;1.50;;
73337;SDS011;61575;49.908;35.556;2023-07-29T10:13:45;2.75;;;1.30;;
73337;SDS011;61575;49.908;35.556;2023-07-29T10:20:09;3.15;;;1.23;;
73337;SDS011;61575;49.908;35.556;2023-07-29T10:23:12;2.45;;;1.05;;
73337;SDS011;61575;49.908;35.556;2023-07-29T10:26:16;2.50;;;1.10;;
73337;SDS011;61575;49.908;35.556;2023-07-29T10:29:22;2.90;;;1.33;;
73337;SDS011;61575;49.908;35.556;2023-07-29T10:32:25;2.50;;;1.20;;
73337;SDS011;61575;49.908;35.556;2023-07-29T10:35:28;3.05;;;1.17;;
73337;SDS011;61575;49.908;35.556;2023-07-29T10:38:31;3.42;;;1.42;;
73337;SDS011;61575;49.908;35.556;2023-07-29T10:45:17;2.88;;;1.30;;
73337;SDS011;61575;49.908;35.556;2023-07-29T10:51:37;2.67;;;1.30;;
73337;SDS011;61575;49.908;35.556;2023-07-29T10:54:46;2.17;;;1.20;;
73337;SDS011;61575;49.908;35.556;2023-07-29T10:57:49;3.13;;;1.23;;
73337;SDS011;61575;49.908;35.556;2023-07-29T11:00:51;2.33;;;1.05;;
73337;SDS011;61575;49.908;35.556;2023-07-29T11:13:17;2.35;;;1.30;;
73337;SDS011;61575;49.908;35.556;2023-07-29T11:19:22;2.35;;;1.15;;
73337;SDS011;61575;49.908;35.556;2023-07-29T11:22:25;1.92;;;1.00;;
73337;SDS011;61575;49.908;35.556;2023-07-29T11:25:28;3.35;;;1.23;;
73337;SDS011;61575;49.908;35.556;2023-07-29T11:28:37;2.92;;;1.27;;
73337;SDS011;61575;49.908;35.556;2023-07-29T11:31:40;3.95;;;1.33;;
73337;SDS011;61575;49.908;35.556;2023-07-29T11:34:42;3.05;;;1.25;;
73337;SDS011;61575;49.908;35.556;2023-07-29T11:37:45;2.30;;;1.10;;
73337;SDS011;61575;49.908;35.556;2023-07-29T11:40:56;1.90;;;1.00;;
73337;SDS011;61575;49.908;35.556;2023-07-29T11:44:00;2.83;;;1.35;;
73337;SDS011;61575;49.908;35.556;2023-07-29T11:50:04;2.30;;;1.10;;
73337;SDS011;61575;49.908;35.556;2023-07-29T11:53:08;2.88;;;1.10;;
73337;SDS011;61575;49.908;35.556;2023-07-29T11:56:10;1.50;;;0.90;;
73337;SDS011;61575;49.908;35.556;2023-07-29T11:59:14;1.80;;;1.00;;
73337;SDS011;61575;49.908;35.556;2023-07-29T12:02:17;1.90;;;1.00;;
73337;SDS011;61575;49.908;35.556;2023-07-29T12:05:21;2.38;;;1.10;;
73337;SDS011;61575;49.908;35.556;2023-07-29T12:08:25;1.80;;;1.00;;
73337;SDS011;61575;49.908;35.556;2023-07-29T12:11:28;2.53;;;1.20;;
73337;SDS011;61575;49.908;35.556;2023-07-29T12:14:30;1.95;;;1.10;;
73337;SDS011;61575;49.908;35.556;2023-07-29T12:17:37;2.90;;;1.23;;
73337;SDS011;61575;49.908;35.556;2023-07-29T12:20:41;2.03;;;1.05;;
73337;SDS011;61575;49.908;35.556;2023-07-29T12:23:43;2.65;;;1.20;;
73337;SDS011;61575;49.908;35.556;2023-07-29T12:26:46;2.20;;;1.00;;
73337;SDS011;61575;49.908;35.556;2023-07-29T12:29:48;2.72;;;1.17;;
73337;SDS011;61575;49.908;35.556;2023-07-29T12:32:53;2.78;;;1.10;;
73337;SDS011;61575;49.908;35.556;2023-07-29T12:35:56;3.45;;;1.10;;
73337;SDS011;61575;49.908;35.556;2023-07-29T12:39:00;1.63;;;0.98;;
73337;SDS011;61575;49.908;35.556;2023-07-29T12:42:02;2.60;;;1.10;;
73337;SDS011;61575;49.908;35.556;2023-07-29T12:45:05;2.20;;;1.00;;
73337;SDS011;61575;49.908;35.556;2023-07-29T12:48:08;1.70;;;0.88;;
73337;SDS011;61575;49.908;35.556;2023-07-29T12:51:11;2.38;;;1.10;;
73337;SDS011;61575;49.908;35.556;2023-07-29T12:54:12;2.50;;;1.13;;
73337;SDS011;61575;49.908;35.556;2023-07-29T12:57:14;1.83;;;1.00;;
73337;SDS011;61575;49.908;35.556;2023-07-29T13:00:16;2.63;;;1.10;;
73337;SDS011;61575;49.908;35.556;2023-07-29T13:03:19;3.53;;;1.00;;
73337;SDS011;61575;49.908;35.556;2023-07-29T13:06:21;2.45;;;1.13;;
73337;SDS011;61575;49.908;35.556;2023-07-29T13:09:23;2.20;;;0.90;;
73337;SDS011;61575;49.908;35.556;2023-07-29T13:12:25;2.35;;;1.10;;
73337;SDS011;61575;49.908;35.556;2023-07-29T13:15:27;2.05;;;1.05;;
73337;SDS011;61575;49.908;35.556;2023-07-29T13:21:31;2.33;;;1.10;;
73337;SDS011;61575;49.908;35.556;2023-07-29T13:27:35;1.95;;;1.10;;
73337;SDS011;61575;49.908;35.556;2023-07-29T13:33:38;2.42;;;1.20;;
73337;SDS011;61575;49.908;35.556;2023-07-29T13:39:42;2.92;;;1.58;;
73337;SDS011;61575;49.908;35.556;2023-07-29T13:45:45;2.15;;;1.10;;
73337;SDS011;61575;49.908;35.556;2023-07-29T13:48:50;2.05;;;1.10;;
73337;SDS011;61575;49.908;35.556;2023-07-29T13:54:53;2.67;;;1.30;;
73337;SDS011;61575;49.908;35.556;2023-07-29T14:00:57;2.85;;;1.20;;
73337;SDS011;61575;49.908;35.556;2023-07-29T14:04:01;3.10;;;1.40;;
73337;SDS011;61575;49.908;35.556;2023-07-29T14:13:07;2.08;;;1.13;;
73337;SDS011;61575;49.908;35.556;2023-07-29T14:16:09;3.42;;;1.00;;
73337;SDS011;61575;49.908;35.556;2023-07-29T14:19:11;2.00;;;1.10;;
73337;SDS011;61575;49.908;35.556;2023-07-29T14:25:15;2.38;;;0.98;;
73337;SDS011;61575;49.908;35.556;2023-07-29T14:28:17;2.55;;;1.10;;
73337;SDS011;61575;49.908;35.556;2023-07-29T14:31:19;2.47;;;1.20;;
73337;SDS011;61575;49.908;35.556;2023-07-29T14:34:21;2.53;;;1.08;;
73337;SDS011;61575;49.908;35.556;2023-07-29T14:40:25;2.08;;;1.10;;
73337;SDS011;61575;49.908;35.556;2023-07-29T14:43:27;3.25;;;1.38;;
73337;SDS011;61575;49.908;35.556;2023-07-29T14:49:30;2.10;;;1.25;;
73337;SDS011;61575;49.908;35.556;2023-07-29T14:55:34;2.38;;;1.20;;
73337;SDS011;61575;49.908;35.556;2023-07-29T15:01:38;2.25;;;1.38;;
73337;SDS011;61575;49.908;35.556;2023-07-29T15:07:42;2.45;;;1.45;;
73337;SDS011;61575;49.908;35.556;2023-07-29T15:13:49;2.70;;;1.42;;
73337;SDS011;61575;49.908;35.556;2023-07-29T15:19:53;3.05;;;1.80;;
73337;SDS011;61575;49.908;35.556;2023-07-29T15:22:55;3.80;;;1.70;;
73337;SDS011;61575;49.908;35.556;2023-07-29T15:25:57;3.70;;;1.70;;
73337;SDS011;61575;49.908;35.556;2023-07-29T15:29:00;3.13;;;1.80;;
73337;SDS011;61575;49.908;35.556;2023-07-29T15:32:02;3.45;;;1.80;;
73337;SDS011;61575;49.908;35.556;2023-07-29T15:35:05;3.83;;;1.75;;
73337;SDS011;61575;49.908;35.556;2023-07-29T15:38:07;3.47;;;1.50;;
73337;SDS011;61575;49.908;35.556;2023-07-29T15:41:10;3.97;;;2.25;;
73337;SDS011;61575;49.908;35.556;2023-07-29T15:47:14;2.85;;;1.80;;
73337;SDS011;61575;49.908;35.556;2023-07-29T15:50:20;3.17;;;1.60;;
73337;SDS011;61575;49.908;35.556;2023-07-29T15:56:24;3.33;;;1.90;;
73337;SDS011;61575;49.908;35.556;2023-07-29T15:59:29;3.08;;;1.77;;
73337;SDS011;61575;49.908;35.556;2023-07-29T16:02:31;3.33;;;1.85;;
73337;SDS011;61575;49.908;35.556;2023-07-29T16:08:34;3.50;;;1.90;;
73337;SDS011;61575;49.908;35.556;2023-07-29T16:11:36;3.45;;;1.85;;
73337;SDS011;61575;49.908;35.556;2023-07-29T16:14:38;3.60;;;2.20;;
73337;SDS011;61575;49.908;35.556;2023-07-29T16:17:40;4.25;;;1.85;;
73337;SDS011;61575;49.908;35.556;2023-07-29T16:23:44;2.95;;;1.73;;
73337;SDS011;61575;49.908;35.556;2023-07-29T16:26:46;4.88;;;2.15;;
73337;SDS011;61575;49.908;35.556;2023-07-29T16:29:48;3.33;;;2.15;;
73337;SDS011;61575;49.908;35.556;2023-07-29T16:35:52;3.78;;;1.98;;
73337;SDS011;61575;49.908;35.556;2023-07-29T16:41:56;3.58;;;2.03;;
73337;SDS011;61575;49.908;35.556;2023-07-29T16:45:06;3.10;;;1.90;;
73337;SDS011;61575;49.908;35.556;2023-07-29T16:48:08;3.30;;;2.00;;
73337;SDS011;61575;49.908;35.556;2023-07-29T16:51:10;5.20;;;2.10;;
73337;SDS011;61575;49.908;35.556;2023-07-29T16:54:12;3.40;;;2.00;;
73337;SDS011;61575;49.908;35.556;2023-07-29T16:57:19;3.38;;;2.00;;
73337;SDS011;61575;49.908;35.556;2023-07-29T17:00:21;3.53;;;1.75;;
73337;SDS011;61575;49.908;35.556;2023-07-29T17:03:23;3.20;;;1.90;;
73337;SDS011;61575;49.908;35.556;2023-07-29T17:06:25;4.70;;;2.05;;
73337;SDS011;61575;49.908;35.556;2023-07-29T17:09:27;3.28;;;2.10;;
73337;SDS011;61575;49.908;35.556;2023-07-29T17:12:29;4.03;;;2.20;;
73337;SDS011;61575;49.908;35.556;2023-07-29T17:18:32;3.47;;;2.10;;
73337;SDS011;61575;49.908;35.556;2023-07-29T17:21:34;3.78;;;2.05;;
73337;SDS011;61575;49.908;35.556;2023-07-29T17:24:36;3.65;;;2.20;;
73337;SDS011;61575;49.908;35.556;2023-07-29T17:27:38;4.22;;;2.50;;
73337;SDS011;61575;49.908;35.556;2023-07-29T17:30:40;4.57;;;2.38;;
73337;SDS011;61575;49.908;35.556;2023-07-29T17:33:42;4.53;;;2.60;;
73337;SDS011;61575;49.908;35.556;2023-07-29T17:36:44;3.60;;;2.30;;
73337;SDS011;61575;49.908;35.556;2023-07-29T17:39:46;3.80;;;2.30;;
73337;SDS011;61575;49.908;35.556;2023-07-29T17:42:48;3.80;;;2.10;;
73337;SDS011;61575;49.908;35.556;2023-07-29T17:45:50;3.20;;;1.88;;
73337;SDS011;61575;49.908;35.556;2023-07-29T17:48:52;3.78;;;2.20;;
73337;SDS011;61575;49.908;35.556;2023-07-29T17:51:54;4.13;;;2.25;;
73337;SDS011;61575;49.908;35.556;2023-07-29T17:54:57;5.00;;;2.25;;
73337;SDS011;61575;49.908;35.556;2023-07-29T17:57:59;3.33;;;2.10;;
73337;SDS011;61575;49.908;35.556;2023-07-29T18:01:04;3.70;;;2.17;;
73337;SDS011;61575;49.908;35.556;2023-07-29T18:04:06;4.53;;;2.30;;
73337;SDS011;61575;49.908;35.556;2023-07-29T18:07:08;4.35;;;2.35;;
73337;SDS011;61575;49.908;35.556;2023-07-29T18:10:10;4.22;;;2.30;;
73337;SDS011;61575;49.908;35.556;2023-07-29T18:13:12;3.90;;;2.30;;
73337;SDS011;61575;49.908;35.556;2023-07-29T18:19:21;5.07;;;2.60;;
73337;SDS011;61575;49.908;35.556;2023-07-29T18:22:23;4.43;;;2.72;;
73337;SDS011;61575;49.908;35.556;2023-07-29T18:25:25;4.10;;;2.55;;
73337;SDS011;61575;49.908;35.556;2023-07-29T18:28:26;4.57;;;2.70;;
73337;SDS011;61575;49.908;35.556;2023-07-29T18:31:28;6.50;;;2.63;;
73337;SDS011;61575;49.908;35.556;2023-07-29T18:34:31;4.30;;;2.70;;
73337;SDS011;61575;49.908;35.556;2023-07-29T18:37:33;4.40;;;2.60;;
73337;SDS011;61575;49.908;35.556;2023-07-29T18:40:34;4.28;;;2.53;;
73337;SDS011;61575;49.908;35.556;2023-07-29T18:43:36;4.10;;;2.33;;
73337;SDS011;61575;49.908;35.556;2023-07-29T18:46:38;6.13;;;2.70;;
73337;SDS011;61575;49.908;35.556;2023-07-29T18:49:41;4.45;;;2.75;;
73337;SDS011;61575;49.908;35.556;2023-07-29T18:52:43;3.75;;;2.47;;
73337;SDS011;61575;49.908;35.556;2023-07-29T18:55:45;4.30;;;2.50;;
73337;SDS011;61575;49.908;35.556;2023-07-29T18:58:47;3.92;;;2.55;;
73337;SDS011;61575;49.908;35.556;2023-07-29T19:01:49;5.10;;;2.22;;
73337;SDS011;61575;49.908;35.556;2023-07-29T19:04:51;3.83;;;2.47;;
73337;SDS011;61575;49.908;35.556;2023-07-29T19:07:53;5.05;;;2.60;;
73337;SDS011;61575;49.908;35.556;2023-07-29T19:10:55;3.95;;;2.60;;
73337;SDS011;61575;49.908;35.556;2023-07-29T19:13:57;3.75;;;2.40;;
73337;SDS011;61575;49.908;35.556;2023-07-29T19:17:00;4.65;;;2.50;;
73337;SDS011;61575;49.908;35.556;2023-07-29T19:20:02;3.75;;;2.40;;
73337;SDS011;61575;49.908;35.556;2023-07-29T19:23:06;4.13;;;2.50;;
73337;SDS011;61575;49.908;35.556;2023-07-29T19:26:08;4.95;;;2.78;;
73337;SDS011;61575;49.908;35.556;2023-07-29T19:29:10;4.32;;;2.67;;
73337;SDS011;61575;49.908;35.556;2023-07-29T19:32:14;4.80;;;2.60;;
73337;SDS011;61575;49.908;35.556;2023-07-29T19:35:16;3.65;;;2.40;;
73337;SDS011;61575;49.908;35.556;2023-07-29T19:38:18;4.38;;;2.70;;
73337;SDS011;61575;49.908;35.556;2023-07-29T19:41:20;4.20;;;2.50;;
73337;SDS011;61575;49.908;35.556;2023-07-29T19:44:22;5.18;;;2.70;;
73337;SDS011;61575;49.908;35.556;2023-07-29T19:47:24;4.78;;;2.58;;
73337;SDS011;61575;49.908;35.556;2023-07-29T19:50:26;4.35;;;2.60;;
73337;SDS011;61575;49.908;35.556;2023-07-29T19:53:29;4.18;;;2.35;;
73337;SDS011;61575;49.908;35.556;2023-07-29T19:56:32;5.22;;;2.75;;
73337;SDS011;61575;49.908;35.556;2023-07-29T19:59:34;5.13;;;2.55;;
73337;SDS011;61575;49.908;35.556;2023-07-29T20:02:50;4.28;;;2.53;;
73337;SDS011;61575;49.908;35.556;2023-07-29T20:05:52;4.10;;;2.45;;
73337;SDS011;61575;49.908;35.556;2023-07-29T20:08:54;4.40;;;2.85;;
73337;SDS011;61575;49.908;35.556;2023-07-29T20:11:56;4.30;;;2.65;;
73337;SDS011;61575;49.908;35.556;2023-07-29T20:14:58;6.50;;;2.60;;
73337;SDS011;61575;49.908;35.556;2023-07-29T20:18:04;4.07;;;2.30;;
73337;SDS011;61575;49.908;35.556;2023-07-29T20:21:06;4.18;;;2.75;;
73337;SDS011;61575;49.908;35.556;2023-07-29T20:24:08;6.20;;;2.88;;
73337;SDS011;61575;49.908;35.556;2023-07-29T20:27:10;4.25;;;2.53;;
73337;SDS011;61575;49.908;35.556;2023-07-29T20:30:13;3.88;;;2.50;;
73337;SDS011;61575;49.908;35.556;2023-07-29T20:33:15;4.80;;;2.63;;
73337;SDS011;61575;49.908;35.556;2023-07-29T20:36:16;4.30;;;2.80;;
73337;SDS011;61575;49.908;35.556;2023-07-29T20:39:18;4.88;;;2.30;;